Time;durP1;ratioP1;P1;durP2;ratioP2;P2;SDS_P1;SDS_P2;PMS_P1;PMS_P2;Temp;Humidity;BMP_temperature;BMP_pressure;BME280_temperature;BME280_humidity;BME280_pressure;Samples;Min_cycle;Max_cycle;Signal;HPM_P1;HPM_P2
2023/10/08 00:02:27;;;;;;;6.32;3.97;;;;;;;19.41;55.36;98064.91;4862019;29;20287;-82
2023/10/08 00:04:54;;;;;;;5.38;2.97;;;;;;;19.34;55.47;98061.81;4864579;29;20458;-81
2023/10/08 00:07:24;;;;;;;5.60;3.08;;;;;;;19.42;55.96;98077.03;4848650;29;21530;-82
2023/10/08 00:09:53;;;;;;;4.00;3.20;;;;;;;19.42;55.63;98066.47;4853050;29;20375;-83
2023/10/08 00:12:19;;;;;;;4.35;2.67;;;;;;;19.49;55.77;98071.44;4837261;29;20188;-83
2023/10/08 00:14:49;;;;;;;4.80;3.20;;;;;;;19.39;55.05;98061.75;4850241;29;20255;-82
2023/10/08 00:17:15;;;;;;;4.65;2.88;;;;;;;19.38;55.22;98068.91;4858438;29;20254;-82
2023/10/08 00:19:43;;;;;;;5.85;3.40;;;;;;;19.30;55.63;98074.00;4868022;29;20195;-82
2023/10/08 00:22:10;;;;;;;4.75;3.53;;;;;;;19.20;55.51;98056.41;4860402;29;20291;-81
2023/10/08 00:24:37;;;;;;;4.78;3.22;;;;;;;19.24;55.52;98068.78;4835241;29;20161;-82
2023/10/08 00:27:06;;;;;;;4.35;2.97;;;;;;;19.30;55.11;98068.72;4839833;29;20412;-82
2023/10/08 00:29:35;;;;;;;4.40;2.92;;;;;;;19.27;55.71;98081.41;4860653;29;20631;-82
2023/10/08 00:32:11;;;;;;;4.07;2.90;;;;;;;19.30;55.56;98080.06;4861350;29;20275;-82
2023/10/08 00:34:41;;;;;;;5.05;2.97;;;;;;;19.30;55.69;98082.69;4856144;29;20334;-82
2023/10/08 00:37:08;;;;;;;5.63;3.38;;;;;;;19.25;55.09;98080.88;4862477;29;20639;-82
2023/10/08 00:39:37;;;;;;;4.60;2.90;;;;;;;19.22;55.79;98078.81;4838967;29;20711;-83
2023/10/08 00:42:07;;;;;;;4.03;3.13;;;;;;;19.22;55.56;98078.81;4847921;29;20262;-82
2023/10/08 00:44:37;;;;;;;6.38;3.15;;;;;;;19.16;56.09;98072.00;4839633;29;20197;-83
2023/10/08 00:47:06;;;;;;;5.70;2.72;;;;;;;19.08;55.92;98068.09;4833895;29;20283;-83
2023/10/08 00:54:46;;;;;;;6.72;3.03;;;;;;;19.11;55.94;98064.13;4842293;29;20385;-82
2023/10/08 00:57:18;;;;;;;6.03;3.10;;;;;;;19.07;56.04;98050.72;4853364;29;20211;-83
2023/10/08 00:59:49;;;;;;;3.90;2.42;;;;;;;19.09;55.83;98058.34;4825356;29;20197;-83
2023/10/08 01:02:15;;;;;;;5.68;3.30;;;;;;;19.08;55.85;98059.41;4863120;29;20322;-83
2023/10/08 01:04:44;;;;;;;6.90;3.47;;;;;;;19.07;56.09;98055.97;4850440;29;20222;-82
2023/10/08 01:07:15;;;;;;;4.93;3.47;;;;;;;19.11;55.45;98061.50;4856511;29;20046;-82
2023/10/08 01:09:49;;;;;;;6.18;3.70;;;;;;;19.02;56.15;98052.59;4867348;29;20239;-83
2023/10/08 01:12:24;;;;;;;4.65;2.83;;;;;;;19.16;56.23;98052.72;4856239;29;20281;-83
2023/10/08 01:14:53;;;;;;;5.03;3.00;;;;;;;19.09;55.76;98047.78;4852266;29;20211;-83
2023/10/08 01:17:24;;;;;;;5.03;2.70;;;;;;;19.04;55.69;98063.69;4839556;29;21613;-83
2023/10/08 01:20:21;;;;;;;5.57;3.33;;;;;;;18.98;55.93;98052.34;4851560;29;20291;-83
2023/10/08 01:22:38;;;;;;;4.18;2.90;;;;;;;19.03;56.24;98047.03;4862623;29;20663;-83
2023/10/08 01:25:04;;;;;;;4.70;2.80;;;;;;;18.95;56.14;98041.56;4862071;29;20169;-83
2023/10/08 01:27:34;;;;;;;4.78;3.03;;;;;;;18.96;56.19;98054.50;4835793;29;20195;-83
2023/10/08 01:30:09;;;;;;;6.05;3.80;;;;;;;18.92;56.26;98031.56;4860685;28;20204;-83
2023/10/08 01:32:36;;;;;;;4.82;3.28;;;;;;;18.87;56.56;98040.31;4858299;29;20280;-83
2023/10/08 01:35:21;;;;;;;4.85;3.50;;;;;;;18.84;56.28;98025.03;4832032;29;20216;-83
2023/10/08 01:37:48;;;;;;;7.82;3.88;;;;;;;18.80;56.61;98029.25;4855519;29;20239;-82
2023/10/08 01:40:13;;;;;;;5.57;3.30;;;;;;;18.88;56.82;98036.59;4831277;29;20263;-83
2023/10/08 01:42:39;;;;;;;5.25;3.75;;;;;;;18.94;56.35;98037.38;4858845;29;20743;-83
2023/10/08 01:45:10;;;;;;;5.70;2.80;;;;;;;18.93;56.08;98033.16;4861568;29;20247;-84
2023/10/08 01:47:35;;;;;;;5.38;3.63;;;;;;;18.86;56.56;98031.59;4849746;29;20258;-83
2023/10/08 01:50:05;;;;;;;6.63;3.15;;;;;;;18.83;56.75;98024.25;4857391;29;20160;-82
2023/10/08 01:52:30;;;;;;;4.43;2.85;;;;;;;18.78;56.37;98029.56;4854389;29;20742;-83
2023/10/08 01:54:56;;;;;;;5.60;3.50;;;;;;;18.74;56.60;98036.44;4843538;29;20354;-83
2023/10/08 01:57:21;;;;;;;4.63;3.42;;;;;;;18.55;57.18;98009.16;4835879;29;20224;-83
2023/10/08 01:59:46;;;;;;;4.18;3.17;;;;;;;18.68;57.26;98027.00;4851506;29;20208;-83
2023/10/08 02:02:15;;;;;;;4.45;3.10;;;;;;;18.70;56.90;98028.28;4843876;29;20209;-83
2023/10/08 02:04:41;;;;;;;4.43;3.42;;;;;;;18.65;56.98;98038.09;4862910;29;20367;-82
2023/10/08 02:07:08;;;;;;;5.80;3.33;;;;;;;18.55;57.37;98024.97;4864849;29;20767;-82
2023/10/08 02:09:44;;;;;;;4.50;3.10;;;;;;;18.79;56.70;98046.16;4859056;29;20244;-82
2023/10/08 02:12:09;;;;;;;5.68;3.38;;;;;;;18.72;56.86;98033.28;4853028;29;20722;-82
2023/10/08 02:14:35;;;;;;;4.93;3.00;;;;;;;18.72;56.85;98020.09;4864359;28;20173;-82
2023/10/08 02:17:05;;;;;;;4.80;2.95;;;;;;;18.66;57.36;98031.75;4854930;29;20212;-82
2023/10/08 02:19:32;;;;;;;5.85;3.38;;;;;;;18.66;57.16;98037.00;4840909;29;20713;-83
2023/10/08 02:21:57;;;;;;;3.92;2.92;;;;;;;18.57;57.48;98042.09;4867601;28;20219;-82
2023/10/08 02:24:26;;;;;;;5.32;4.05;;;;;;;18.54;57.29;98040.00;4850126;29;20603;-82
2023/10/08 02:26:56;;;;;;;5.38;3.15;;;;;;;18.60;57.27;98036.28;4866894;29;20267;-82
2023/10/08 02:29:25;;;;;;;5.68;3.53;;;;;;;18.72;56.72;98034.06;4838314;29;20534;-82
2023/10/08 02:31:50;;;;;;;6.75;3.33;;;;;;;18.49;57.65;98022.38;4850674;29;20260;-82
2023/10/08 02:34:16;;;;;;;4.22;3.28;;;;;;;18.34;57.20;98014.56;4830340;29;20287;-82
2023/10/08 02:36:43;;;;;;;7.07;3.70;;;;;;;18.43;57.85;98031.38;4822964;29;20193;-82
2023/10/08 02:39:24;;;;;;;3.55;2.58;;;;;;;18.27;58.22;98028.06;4863322;29;20239;-83
2023/10/08 02:41:50;;;;;;;6.30;3.30;;;;;;;18.29;58.13;98028.56;4836736;29;20202;-83
2023/10/08 02:44:17;;;;;;;6.30;3.72;;;;;;;18.31;58.53;98030.94;4840511;29;20266;-83
2023/10/08 02:46:49;;;;;;;4.95;3.60;;;;;;;18.26;58.15;98026.47;4864050;29;20133;-82
2023/10/08 02:49:25;;;;;;;5.72;3.58;;;;;;;18.31;58.19;98036.97;4849603;29;20109;-82
2023/10/08 02:51:52;;;;;;;5.30;3.13;;;;;;;18.30;57.95;98034.63;4854434;29;20262;-83
2023/10/08 02:54:18;;;;;;;6.47;3.08;;;;;;;18.22;57.89;98033.38;4849167;29;20192;-82
2023/10/08 02:56:51;;;;;;;3.88;2.95;;;;;;;18.23;58.23;98048.13;4849400;29;20608;-83
2023/10/08 02:59:41;;;;;;;4.70;3.47;;;;;;;17.86;58.63;98023.00;4964370;28;20557;-84
2023/10/08 03:02:21;;;;;;;5.97;3.72;;;;;;;18.17;58.74;98045.78;4940982;28;20170;-83
2023/10/08 03:04:52;;;;;;;5.78;4.07;;;;;;;18.14;58.39;98033.94;4922308;28;20138;-83
2023/10/08 03:07:21;;;;;;;6.28;3.80;;;;;;;18.08;58.61;98025.28;4918309;28;20461;-83
2023/10/08 03:09:49;;;;;;;5.47;3.67;;;;;;;18.03;58.76;98035.84;4932590;28;20293;-83
2023/10/08 03:12:16;;;;;;;7.15;3.97;;;;;;;18.02;58.09;98036.88;4945990;28;20185;-83
2023/10/08 03:15:01;;;;;;;6.55;3.22;;;;;;;17.93;58.47;98039.31;4915129;28;20169;-84
2023/10/08 03:17:29;;;;;;;4.67;3.27;;;;;;;17.95;58.57;98041.66;4942530;28;20151;-83
2023/10/08 03:20:14;;;;;;;5.57;3.70;;;;;;;17.89;58.43;98029.56;4925129;28;20261;-83
2023/10/08 03:22:45;;;;;;;7.15;3.15;;;;;;;17.88;58.89;98028.78;4924844;28;20292;-84
2023/10/08 03:25:16;;;;;;;7.55;3.30;;;;;;;17.88;58.36;98044.59;4926677;28;20173;-83
2023/10/08 03:27:42;;;;;;;6.60;3.28;;;;;;;17.75;58.61;98038.03;4930159;28;20200;-84
2023/10/08 03:30:14;;;;;;;4.75;3.17;;;;;;;17.58;58.61;98022.56;4941093;28;20205;-83
2023/10/08 03:32:43;;;;;;;6.13;4.00;;;;;;;17.66;59.40;98042.28;4943966;28;20203;-83
2023/10/08 03:35:12;;;;;;;4.85;3.55;;;;;;;17.52;59.58;98025.47;4938512;28;20310;-84
2023/10/08 03:37:45;;;;;;;5.38;3.45;;;;;;;17.64;58.80;98033.09;4908734;28;20201;-84
2023/10/08 03:42:59;;;;;;;5.35;3.42;;;;;;;17.61;58.78;98044.94;4956488;28;20271;-84
2023/10/08 03:48:14;;;;;;;5.30;3.95;;;;;;;17.55;59.47;98035.47;4947157;28;20312;-83
2023/10/08 03:50:41;;;;;;;6.13;3.35;;;;;;;17.53;59.55;98029.66;4907807;28;20192;-84
2023/10/08 03:53:12;;;;;;;6.68;3.58;;;;;;;17.57;59.38;98022.81;4941575;28;20249;-83
2023/10/08 03:55:42;;;;;;;6.72;3.92;;;;;;;17.55;59.52;98022.31;4926721;28;20256;-83
2023/10/08 03:58:19;;;;;;;8.25;3.55;;;;;;;17.59;59.36;98025.97;4966860;28;20149;-83
2023/10/08 04:00:45;;;;;;;5.97;3.30;;;;;;;17.54;59.43;98023.38;4908511;28;20282;-83
2023/10/08 04:03:11;;;;;;;6.57;3.40;;;;;;;17.60;59.09;98030.19;4924190;28;20223;-83
2023/10/08 04:08:42;;;;;;;6.47;4.10;;;;;;;17.57;58.67;98026.25;4935765;28;20304;-84
2023/10/08 04:11:30;;;;;;;6.22;3.40;;;;;;;17.59;58.93;98036.50;4931859;28;20192;-84
2023/10/08 04:13:59;;;;;;;6.03;3.80;;;;;;;17.48;59.06;98027.88;4924924;28;20275;-83
2023/10/08 04:16:27;;;;;;;6.65;4.07;;;;;;;17.45;59.47;98024.97;4913192;28;20378;-84
2023/10/08 04:18:55;;;;;;;4.25;3.50;;;;;;;17.46;59.70;98037.88;4929372;28;20233;-83
2023/10/08 04:21:27;;;;;;;6.63;3.80;;;;;;;17.47;59.28;98025.50;4912132;28;20655;-83
2023/10/08 04:23:53;;;;;;;5.40;3.42;;;;;;;17.42;59.16;98037.59;4944222;28;20492;-83
2023/10/08 04:26:23;;;;;;;5.28;3.33;;;;;;;17.38;59.12;98017.34;4915401;28;20200;-83
2023/10/08 04:29:02;;;;;;;4.15;3.30;;;;;;;17.36;59.53;98027.38;4916375;28;20522;-83
2023/10/08 04:31:37;;;;;;;5.35;3.20;;;;;;;17.37;59.60;98021.81;4930112;28;20253;-83
2023/10/08 04:34:15;;;;;;;5.55;3.63;;;;;;;17.36;59.76;98027.38;4924148;28;20340;-83
2023/10/08 04:36:42;;;;;;;5.68;3.17;;;;;;;17.30;59.90;98023.16;4946000;28;20646;-83
2023/10/08 04:39:21;;;;;;;4.55;3.38;;;;;;;17.24;59.87;98030.28;4930552;28;20180;-83
2023/10/08 04:41:48;;;;;;;4.00;3.35;;;;;;;17.11;59.91;98034.25;4918726;28;20363;-83
2023/10/08 04:44:14;;;;;;;5.25;3.45;;;;;;;17.08;59.67;98039.25;4913824;28;20200;-83
2023/10/08 04:46:47;;;;;;;7.43;3.78;;;;;;;17.08;60.01;98034.00;4895167;28;20526;-83
2023/10/08 04:49:28;;;;;;;5.60;3.85;;;;;;;17.17;59.88;98048.19;4926620;28;20650;-83
2023/10/08 04:52:16;;;;;;;5.72;3.83;;;;;;;17.30;59.39;98057.38;4905884;28;20676;-83
2023/10/08 04:54:51;;;;;;;6.13;3.75;;;;;;;17.31;59.18;98033.44;4916854;28;20300;-83
2023/10/08 04:57:16;;;;;;;;;;;;;;;17.60;58.31;98046.00;4928546;28;20209;-83
2023/10/08 04:59:43;;;;;;;4.38;3.05;;;;;;;17.40;58.54;98028.41;4897196;28;20206;-82
2023/10/08 05:02:13;;;;;;;4.95;3.63;;;;;;;17.40;58.45;98031.03;4911216;28;20145;-82
2023/10/08 05:10:11;;;;;;;7.07;4.45;;;;;;;17.44;58.56;98020.75;4936250;28;20756;-83
2023/10/08 05:12:38;;;;;;;5.38;3.78;;;;;;;17.44;58.54;98020.75;4959772;28;20208;-83
2023/10/08 05:29:00;;;;;;;5.40;4.05;;;;;;;17.09;58.60;98017.94;4926085;28;20213;-83
2023/10/08 05:34:16;;;;;;;5.82;3.78;;;;;;;17.13;58.27;98010.31;4917784;28;20135;-84
2023/10/08 05:39:32;;;;;;;5.40;3.13;;;;;;;17.00;58.57;98014.28;4928442;28;20544;-84
2023/10/08 05:47:38;;;;;;;5.43;3.65;;;;;;;16.97;58.74;98020.06;4944092;28;20204;-83
2023/10/08 05:55:35;;;;;;;5.85;3.58;;;;;;;16.83;59.81;98057.38;4946291;28;20335;-84
2023/10/08 05:58:24;;;;;;;4.57;3.08;;;;;;;16.80;59.76;98065.78;4915014;28;20184;-84
2023/10/08 06:11:44;;;;;;;5.70;3.70;;;;;;;16.63;58.88;98050.28;4911898;28;20334;-84
2023/10/08 06:14:36;;;;;;;6.87;4.13;;;;;;;16.38;60.77;98064.19;4913012;28;20218;-84
2023/10/08 06:19:49;;;;;;;23.58;17.20;;;;;;;16.57;59.87;98076.81;4887789;28;20197;-83
2023/10/08 06:22:18;;;;;;;8.15;5.15;;;;;;;16.67;60.25;98074.19;4893620;28;20239;-83
2023/10/08 06:24:44;;;;;;;5.70;4.15;;;;;;;16.58;59.94;98062.63;4910393;28;20193;-83
2023/10/08 06:27:16;;;;;;;6.53;3.47;;;;;;;16.73;59.65;98059.22;4959297;28;20185;-84
2023/10/08 06:29:44;;;;;;;5.00;3.60;;;;;;;16.75;59.35;98067.66;4930729;28;20479;-84
2023/10/08 06:32:11;;;;;;;4.93;3.08;;;;;;;16.84;59.47;98076.63;4913593;28;20364;-83
2023/10/08 06:34:40;;;;;;;4.65;3.50;;;;;;;16.84;59.59;98073.97;4899384;28;20797;-83
2023/10/08 06:37:06;;;;;;;5.70;3.70;;;;;;;16.87;59.77;98072.69;4896385;28;20208;-83
2023/10/08 06:39:47;;;;;;;5.05;3.70;;;;;;;16.98;59.36;98077.69;4903807;28;20197;-83
2023/10/08 06:42:15;;;;;;;5.72;3.60;;;;;;;17.02;59.19;98089.25;4939214;28;20201;-83
2023/10/08 06:44:43;;;;;;;10.00;3.90;;;;;;;17.03;59.44;98095.28;4892762;28;20632;-83
2023/10/08 06:47:09;;;;;;;4.85;3.63;;;;;;;17.09;58.95;98082.94;4915660;28;20189;-83
2023/10/08 06:49:35;;;;;;;5.57;3.20;;;;;;;17.18;59.30;98091.88;4896919;28;20204;-83
2023/10/08 06:52:04;;;;;;;7.30;3.80;;;;;;;17.40;58.03;98091.59;4911597;28;20733;-83
2023/10/08 06:54:30;;;;;;;6.70;3.65;;;;;;;17.45;57.69;98082.91;4910971;28;20170;-84
2023/10/08 06:56:56;;;;;;;5.47;3.25;;;;;;;17.56;57.15;98079.97;4921158;28;20204;-83
2023/10/08 06:59:25;;;;;;;6.68;3.63;;;;;;;17.62;57.95;98085.25;4922247;28;20192;-84
2023/10/08 07:01:51;;;;;;;5.93;3.65;;;;;;;17.72;58.18;98095.75;4896066;28;20548;-83
2023/10/08 07:04:18;;;;;;;5.05;3.67;;;;;;;17.79;57.28;98089.13;4923133;28;20220;-83
2023/10/08 07:06:46;;;;;;;6.40;4.00;;;;;;;17.79;57.06;98091.75;4901301;28;20295;-84
2023/10/08 07:11:54;;;;;;;6.18;3.42;;;;;;;18.09;57.10;98095.34;4930238;28;20632;-84
2023/10/08 07:14:27;;;;;;;6.07;3.60;;;;;;;18.25;56.51;98087.38;4921483;28;20213;-84
2023/10/08 07:17:00;;;;;;;6.43;3.50;;;;;;;18.38;56.35;98092.06;4926524;28;20200;-84
2023/10/08 07:19:38;;;;;;;6.53;4.38;;;;;;;18.28;56.26;98092.09;4924218;28;20359;-83
2023/10/08 07:22:18;;;;;;;6.80;4.07;;;;;;;18.42;55.35;98093.09;4910374;28;20277;-83
2023/10/08 07:24:45;;;;;;;4.90;3.17;;;;;;;18.50;55.70;98100.41;4890024;28;20186;-83
2023/10/08 07:27:11;;;;;;;5.35;3.95;;;;;;;18.57;55.53;98107.25;4928399;28;20303;-83
2023/10/08 07:29:37;;;;;;;5.55;3.90;;;;;;;18.69;54.70;98099.78;4924763;28;20263;-83
2023/10/08 07:32:11;;;;;;;4.60;3.33;;;;;;;18.74;54.92;98102.38;4912891;28;20709;-84
2023/10/08 07:34:38;;;;;;;4.60;3.78;;;;;;;18.72;55.65;98101.88;4923696;28;20209;-83
2023/10/08 07:37:05;;;;;;;5.35;3.40;;;;;;;18.80;54.68;98093.38;4922533;28;20316;-83
2023/10/08 07:41:58;;;;;;;6.18;4.10;;;;;;;18.82;54.57;98106.31;4911301;28;20281;-84
2023/10/08 07:44:25;;;;;;;4.93;3.28;;;;;;;18.97;54.76;98121.25;4897636;28;20192;-84
2023/10/08 07:46:54;;;;;;;5.88;3.83;;;;;;;19.07;54.33;98121.16;4894558;28;20295;-83
2023/10/08 07:49:19;;;;;;;5.68;3.75;;;;;;;19.03;54.94;98133.34;4913331;28;20767;-84
2023/10/08 07:51:51;;;;;;;5.25;3.70;;;;;;;19.07;53.88;98135.19;4913029;28;20205;-83
2023/10/08 07:54:19;;;;;;;6.50;4.00;;;;;;;19.26;54.21;98131.84;4946669;28;20266;-84
2023/10/08 07:56:46;;;;;;;6.20;4.28;;;;;;;19.28;55.07;98138.44;4915161;28;20298;-84
2023/10/08 07:59:14;;;;;;;7.68;3.75;;;;;;;19.27;54.38;98136.84;4913991;28;20217;-84
2023/10/08 08:01:42;;;;;;;6.53;4.22;;;;;;;19.32;53.67;98132.59;4910566;28;20688;-83
2023/10/08 08:04:21;;;;;;;4.15;3.15;;;;;;;19.35;54.62;98132.06;4930731;28;20665;-84
2023/10/08 08:06:49;;;;;;;7.05;4.15;;;;;;;19.51;53.83;98141.41;4913406;28;20256;-84
2023/10/08 08:09:19;;;;;;;6.30;4.30;;;;;;;19.65;53.63;98131.75;4904385;28;20223;-84
2023/10/08 08:11:48;;;;;;;5.97;4.15;;;;;;;19.89;53.20;98149.50;4929271;28;20205;-84
2023/10/08 08:14:17;;;;;;;6.10;4.28;;;;;;;19.81;53.13;98142.97;4929056;28;20291;-84
2023/10/08 08:16:47;;;;;;;5.05;3.22;;;;;;;19.98;53.29;98158.41;4912773;28;20213;-82
2023/10/08 08:19:15;;;;;;;5.00;3.83;;;;;;;20.08;52.33;98151.41;4930337;28;20237;-83
2023/10/08 08:21:45;;;;;;;6.35;4.20;;;;;;;20.35;52.26;98161.41;4930189;28;20234;-82
2023/10/08 08:24:12;;;;;;;4.88;3.72;;;;;;;20.33;52.21;98156.41;4937494;28;20208;-82
2023/10/08 08:27:00;;;;;;;5.97;3.65;;;;;;;20.60;51.94;98157.66;4910871;28;20343;-82
2023/10/08 08:29:25;;;;;;;5.78;4.13;;;;;;;20.65;50.86;98149.66;4930210;28;20205;-82
2023/10/08 08:31:53;;;;;;;4.43;3.88;;;;;;;20.76;50.98;98151.09;4930687;28;20141;-82
2023/10/08 08:34:19;;;;;;;6.88;3.47;;;;;;;20.68;51.27;98145.66;4911421;28;20169;-82
2023/10/08 08:36:49;;;;;;;5.88;4.07;;;;;;;20.67;51.46;98149.38;4898233;28;20189;-82
2023/10/08 08:39:28;;;;;;;7.47;4.55;;;;;;;20.72;51.14;98147.44;4898358;28;20659;-82
2023/10/08 08:41:59;;;;;;;7.45;4.38;;;;;;;20.74;52.13;98137.34;4915272;28;20204;-82
2023/10/08 08:44:29;;;;;;;6.20;4.30;;;;;;;20.75;51.81;98138.94;4925983;28;20709;-82
2023/10/08 08:46:58;;;;;;;5.57;4.32;;;;;;;20.73;51.51;98149.03;4910517;28;20211;-83
2023/10/08 08:49:23;;;;;;;8.68;4.18;;;;;;;20.85;51.74;98153.09;4898443;28;20184;-83
2023/10/08 08:51:53;;;;;;;4.72;3.90;;;;;;;20.86;51.69;98150.16;4911424;28;20201;-83
2023/10/08 08:54:20;;;;;;;6.85;3.60;;;;;;;21.01;51.01;98162.38;4922500;28;20195;-83
2023/10/08 08:56:46;;;;;;;6.25;4.05;;;;;;;20.93;51.00;98160.38;4915315;28;20232;-82
2023/10/08 08:59:12;;;;;;;6.05;3.15;;;;;;;20.96;51.11;98170.41;4912057;28;20193;-82
2023/10/08 09:01:38;;;;;;;5.60;3.88;;;;;;;20.93;51.43;98169.09;4909484;28;20229;-82
2023/10/08 09:04:07;;;;;;;5.28;4.00;;;;;;;20.98;50.90;98164.84;4895873;28;20167;-83
2023/10/08 09:06:34;;;;;;;5.03;4.07;;;;;;;21.00;50.18;98171.41;4929397;28;20277;-82
2023/10/08 09:09:23;;;;;;;5.15;3.53;;;;;;;21.06;51.41;98167.59;4937739;28;20185;-82
2023/10/08 09:11:51;;;;;;;5.97;3.80;;;;;;;21.03;51.09;98154.16;4943621;28;20315;-83
2023/10/08 09:14:29;;;;;;;4.60;3.55;;;;;;;21.26;51.78;98169.13;4929121;28;20276;-82
2023/10/08 09:16:56;;;;;;;5.47;4.10;;;;;;;21.28;51.74;98161.69;4945953;28;20266;-82
2023/10/08 09:19:24;;;;;;;6.95;4.25;;;;;;;21.38;50.17;98158.06;4923064;28;20300;-82
2023/10/08 09:22:10;;;;;;;5.03;3.92;;;;;;;21.72;49.52;98161.53;4928261;28;20177;-81
2023/10/08 09:24:37;;;;;;;5.85;3.97;;;;;;;21.70;50.14;98175.84;4924769;28;20205;-82
2023/10/08 09:27:09;;;;;;;5.82;3.38;;;;;;;21.94;49.75;98172.25;4937101;28;20283;-82
2023/10/08 09:29:40;;;;;;;6.60;4.20;;;;;;;21.87;49.86;98163.91;4904126;28;20177;-83
2023/10/08 09:32:09;;;;;;;6.28;4.38;;;;;;;22.00;49.87;98178.22;4920429;28;20263;-82
2023/10/08 09:34:34;;;;;;;6.22;3.80;;;;;;;22.07;48.99;98171.47;4894019;28;20174;-83
2023/10/08 09:37:01;;;;;;;4.45;3.60;;;;;;;22.07;49.81;98175.97;4955444;28;20603;-82
2023/10/08 09:39:33;;;;;;;7.35;4.53;;;;;;;22.15;50.56;98179.81;4922388;28;20376;-82
2023/10/08 09:42:02;;;;;;;5.60;3.80;;;;;;;22.17;50.52;98180.28;4908161;28;20221;-82
2023/10/08 09:44:28;;;;;;;6.47;3.75;;;;;;;22.32;49.08;98176.59;4903676;28;20299;-82
2023/10/08 09:46:59;;;;;;;6.00;3.85;;;;;;;22.31;49.92;98159.09;4927077;28;20267;-82
2023/10/08 09:49:33;;;;;;;6.22;4.25;;;;;;;22.50;49.77;98158.94;4920708;28;20200;-82
2023/10/08 09:52:01;;;;;;;8.53;4.10;;;;;;;22.50;49.67;98162.41;4937725;28;20188;-82
2023/10/08 09:54:32;;;;;;;6.18;3.80;;;;;;;22.69;49.13;98154.31;4914512;28;20262;-82
2023/10/08 09:56:59;;;;;;;6.30;3.80;;;;;;;22.83;48.68;98161.44;4914368;28;20288;-84
2023/10/08 09:59:26;;;;;;;6.15;3.67;;;;;;;22.99;48.97;98152.81;4939016;28;20949;-84
2023/10/08 10:01:53;;;;;;;6.00;3.40;;;;;;;23.20;47.64;98162.97;4931243;28;20198;-84
2023/10/08 10:04:25;;;;;;;6.00;3.58;;;;;;;23.47;47.02;98151.41;4911459;28;20255;-81
2023/10/08 10:06:51;;;;;;;4.55;3.60;;;;;;;23.54;46.67;98161.63;4921228;28;20334;-82
2023/10/08 10:09:21;;;;;;;5.22;3.45;;;;;;;23.85;45.79;98163.50;4943387;28;20191;-82
2023/10/08 10:11:52;;;;;;;6.20;4.10;;;;;;;24.00;46.34;98157.78;4912667;28;20278;-82
2023/10/08 10:14:18;;;;;;;4.65;3.85;;;;;;;24.14;45.91;98151.56;4910116;28;21793;-83
2023/10/08 10:16:48;;;;;;;5.43;4.00;;;;;;;24.34;45.92;98156.28;4928569;28;20170;-83
2023/10/08 10:19:20;;;;;;;5.22;4.20;;;;;;;24.53;44.62;98156.00;4890746;28;20626;-82
2023/10/08 10:21:45;;;;;;;4.55;3.50;;;;;;;24.46;45.23;98161.00;4912197;28;20257;-83
2023/10/08 10:24:37;;;;;;;6.20;3.80;;;;;;;24.11;45.75;98166.25;4912269;28;20284;-82
2023/10/08 10:27:15;;;;;;;6.05;4.18;;;;;;;24.21;45.66;98157.19;4911794;28;20248;-83
2023/10/08 10:29:45;;;;;;;6.25;3.47;;;;;;;24.17;46.37;98156.25;4914071;28;20185;-82
2023/10/08 10:32:14;;;;;;;7.20;4.15;;;;;;;24.20;47.31;98156.44;4921229;28;20264;-82
2023/10/08 10:34:44;;;;;;;6.13;3.95;;;;;;;24.10;45.86;98149.50;4925215;28;20257;-82
2023/10/08 10:37:19;;;;;;;8.05;3.40;;;;;;;24.31;45.20;98156.91;4924429;28;20730;-82
2023/10/08 10:40:13;;;;;;;6.13;3.55;;;;;;;24.78;43.77;98157.16;4918239;28;20728;-82
2023/10/08 10:42:42;;;;;;;5.17;3.40;;;;;;;24.63;44.33;98141.63;4912013;28;20715;-82
2023/10/08 10:48:12;;;;;;;5.13;3.58;;;;;;;25.08;44.19;98154.63;4942306;28;20232;-82
2023/10/08 10:51:26;;;;;;;4.95;3.67;;;;;;;25.36;44.01;98141.75;4904007;28;20694;-83
2023/10/08 10:53:27;;;;;;;5.80;4.22;;;;;;;25.45;43.36;98139.06;4915967;28;20371;-83
2023/10/08 10:56:04;;;;;;;5.53;4.28;;;;;;;25.42;43.08;98135.13;4911856;28;20184;-82
2023/10/08 10:58:38;;;;;;;5.25;3.75;;;;;;;25.75;43.70;98144.44;4893587;28;20316;-82
2023/10/08 11:01:21;;;;;;;5.75;3.78;;;;;;;25.86;43.16;98142.97;4934561;28;20322;-82
2023/10/08 11:03:51;;;;;;;5.57;3.40;;;;;;;26.26;41.71;98144.53;4925551;28;20196;-82
2023/10/08 11:06:26;;;;;;;7.18;4.30;;;;;;;26.50;40.83;98143.88;4922079;28;20219;-82
2023/10/08 11:08:52;;;;;;;7.80;4.03;;;;;;;26.46;41.29;98142.94;4933941;28;20312;-82
2023/10/08 11:11:28;;;;;;;6.80;4.00;;;;;;;26.91;40.43;98136.97;4921456;28;20077;-82
2023/10/08 11:14:00;;;;;;;4.80;3.63;;;;;;;27.15;40.02;98138.94;4937958;28;20914;-82
2023/10/08 11:16:26;;;;;;;4.15;3.42;;;;;;;27.15;40.32;98146.19;4914588;28;20772;-82
2023/10/08 11:18:57;;;;;;;5.55;3.60;;;;;;;27.62;39.13;98137.84;4913192;28;20174;-82
2023/10/08 11:21:24;;;;;;;4.97;3.28;;;;;;;27.78;38.69;98144.09;4909496;28;20778;-82
2023/10/08 11:23:55;;;;;;;5.82;3.78;;;;;;;28.24;38.38;98133.28;4938606;28;20369;-82
2023/10/08 11:26:32;;;;;;;7.60;3.58;;;;;;;28.35;37.11;98142.41;4915061;28;20998;-82
2023/10/08 11:29:00;;;;;;;4.88;3.47;;;;;;;28.53;36.97;98137.56;4957857;28;20053;-82
2023/10/08 11:31:27;;;;;;;5.55;3.67;;;;;;;28.70;36.91;98130.38;4947523;28;20188;-82
2023/10/08 11:33:58;;;;;;;4.50;3.70;;;;;;;29.10;36.56;98133.00;4931309;28;20643;-82
2023/10/08 11:36:33;;;;;;;4.90;3.45;;;;;;;29.37;35.64;98121.81;4921588;28;20191;-82
2023/10/08 11:39:09;;;;;;;7.28;3.78;;;;;;;29.66;34.58;98126.75;4908490;28;20155;-82
2023/10/08 11:41:50;;;;;;;4.55;3.50;;;;;;;29.55;34.27;98123.03;4912294;28;20136;-83
2023/10/08 11:44:19;;;;;;;7.78;4.22;;;;;;;30.00;33.96;98121.00;4907319;28;20635;-81
2023/10/08 11:46:45;;;;;;;7.55;4.38;;;;;;;29.97;34.26;98119.03;4898375;28;20169;-83
2023/10/08 11:49:17;;;;;;;5.45;3.70;;;;;;;30.04;34.30;98111.13;4912625;28;20154;-82
2023/10/08 11:51:44;;;;;;;8.32;3.65;;;;;;;30.20;34.44;98111.88;4923410;28;20193;-82
2023/10/08 11:54:11;;;;;;;5.07;3.88;;;;;;;30.37;33.37;98116.09;4897930;28;20445;-81
2023/10/08 11:56:38;;;;;;;5.45;3.55;;;;;;;30.50;33.11;98118.63;4914257;28;20293;-82
2023/10/08 11:59:08;;;;;;;5.95;3.78;;;;;;;30.55;32.92;98121.81;4929731;28;20300;-82
2023/10/08 12:01:35;;;;;;;6.43;3.70;;;;;;;30.58;33.96;98128.41;4912238;28;20296;-82
2023/10/08 12:04:01;;;;;;;4.72;3.83;;;;;;;30.81;32.38;98121.19;4915020;28;20283;-82
2023/10/08 12:06:29;;;;;;;4.50;3.67;;;;;;;30.89;32.94;98116.69;4904418;28;20256;-82
2023/10/08 12:08:58;;;;;;;5.10;3.85;;;;;;;30.85;32.80;98117.78;4930119;28;20785;-82
2023/10/08 12:11:30;;;;;;;4.65;3.72;;;;;;;30.97;33.82;98128.41;4926813;28;20703;-82
2023/10/08 12:13:56;;;;;;;5.53;3.78;;;;;;;30.80;32.90;98119.63;4923851;28;20117;-82
2023/10/08 12:16:22;;;;;;;7.53;4.13;;;;;;;30.49;34.62;98122.47;4953181;28;20252;-81
2023/10/08 12:18:52;;;;;;;6.03;4.00;;;;;;;29.83;34.79;98116.78;4898973;28;20129;-81
2023/10/08 12:21:18;;;;;;;5.60;3.90;;;;;;;29.41;35.26;98104.69;4917456;28;20302;-81
2023/10/08 12:23:45;;;;;;;7.10;4.15;;;;;;;29.22;35.64;98113.41;4891727;28;20269;-81
2023/10/08 12:26:15;;;;;;;4.85;3.88;;;;;;;28.80;35.92;98096.97;4894734;28;20253;-81
2023/10/08 12:28:42;;;;;;;6.13;3.63;;;;;;;28.48;37.10;98113.69;4897014;28;20640;-81
2023/10/08 12:31:10;;;;;;;5.05;3.63;;;;;;;28.25;38.79;98107.28;4907868;28;20291;-80
2023/10/08 12:33:37;;;;;;;5.00;3.83;;;;;;;28.09;38.36;98107.97;4913430;28;20255;-82
2023/10/08 12:36:10;;;;;;;5.57;3.58;;;;;;;27.83;38.26;98098.38;4913796;28;20262;-82
2023/10/08 12:38:36;;;;;;;5.93;4.03;;;;;;;27.60;37.61;98102.63;4910759;28;20691;-82
2023/10/08 12:41:11;;;;;;;9.52;4.47;;;;;;;27.48;37.60;98100.72;4893151;28;20228;-82
2023/10/08 12:43:38;;;;;;;6.88;4.05;;;;;;;27.39;38.05;98098.13;4888284;28;20162;-83
2023/10/08 12:46:10;;;;;;;6.22;4.25;;;;;;;27.27;38.84;98100.78;4942840;28;20208;-82
2023/10/08 12:48:36;;;;;;;6.80;4.32;;;;;;;27.25;39.24;98113.69;4900847;28;20292;-82
2023/10/08 12:51:05;;;;;;;9.30;3.95;;;;;;;27.04;39.69;98117.22;4926210;28;20253;-82
2023/10/08 12:53:34;;;;;;;7.47;4.00;;;;;;;26.94;39.41;98101.59;4923984;28;20284;-82
2023/10/08 12:56:06;;;;;;;6.70;3.47;;;;;;;27.09;38.37;98117.00;4909777;28;20225;-82
2023/10/08 12:58:44;;;;;;;4.55;3.50;;;;;;;26.99;38.37;98113.94;4903401;28;20209;-82
2023/10/08 13:01:10;;;;;;;4.88;3.45;;;;;;;26.70;39.12;98104.94;4916398;28;20189;-82